createdAt,value
2022-12-05T00:02:07.541Z,36.00
2022-12-05T00:04:36.793Z,38.70
2022-12-05T00:07:06.239Z,38.10
2022-12-05T00:09:35.383Z,38.10
2022-12-05T00:12:04.840Z,36.60
2022-12-05T00:14:33.842Z,37.80
2022-12-05T00:17:02.860Z,37.10
2022-12-05T00:19:35.423Z,36.20
2022-12-05T00:24:33.158Z,34.90
2022-12-05T00:27:02.427Z,37.70
2022-12-05T00:29:32.854Z,37.40
2022-12-05T00:32:01.721Z,37.60
2022-12-05T00:34:30.870Z,36.70
2022-12-05T00:36:59.743Z,37.50
2022-12-05T00:39:28.780Z,40.60
2022-12-05T00:41:57.723Z,38.30
2022-12-05T00:44:26.752Z,33.90
2022-12-05T00:46:55.802Z,39.00
2022-12-05T00:49:24.808Z,36.60
2022-12-05T00:51:54.314Z,38.00
2022-12-05T00:54:25.513Z,37.90
2022-12-05T00:56:56.474Z,37.90
2022-12-05T00:59:25.527Z,37.40
2022-12-05T01:01:54.560Z,36.60
2022-12-05T01:04:25.300Z,37.40
2022-12-05T01:06:57.135Z,36.50
2022-12-05T01:09:26.908Z,34.30
2022-12-05T01:11:56.022Z,35.90
2022-12-05T01:14:25.895Z,34.20
2022-12-05T01:16:56.517Z,36.70
2022-12-05T01:19:30.630Z,34.80
2022-12-05T01:22:00.742Z,37.20
2022-12-05T01:24:32.550Z,35.30
2022-12-05T01:27:01.867Z,33.60
2022-12-05T01:29:30.975Z,36.00
2022-12-05T01:32:00.255Z,35.10
2022-12-05T01:34:29.920Z,39.00
2022-12-05T01:36:58.962Z,37.70
2022-12-05T01:39:28.100Z,35.20
2022-12-05T01:41:57.403Z,34.70
2022-12-05T01:44:26.496Z,36.10
2022-12-05T01:46:56.857Z,36.30
2022-12-05T01:49:44.356Z,36.40
2022-12-05T01:52:22.606Z,39.10
2022-12-05T01:54:56.720Z,36.70
2022-12-05T01:57:26.366Z,36.90
2022-12-05T02:00:02.155Z,35.40
2022-12-05T02:02:46.789Z,35.50
2022-12-05T02:05:23.603Z,37.30
2022-12-05T02:07:56.259Z,33.50
2022-12-05T02:10:28.510Z,34.90
2022-12-05T02:15:56.917Z,32.40
2022-12-05T02:19:30.598Z,32.70
2022-12-05T02:22:36.571Z,34.80
2022-12-05T02:25:43.779Z,34.80
2022-12-05T02:28:48.076Z,35.00
2022-12-05T02:31:40.973Z,31.70
2022-12-05T02:34:35.725Z,32.20
2022-12-05T02:37:16.585Z,33.40
2022-12-05T02:40:14.993Z,34.40
2022-12-05T02:43:13.110Z,30.40
2022-12-05T02:45:45.573Z,34.80
2022-12-05T02:48:17.272Z,32.70
2022-12-05T02:50:49.350Z,33.60
2022-12-05T02:53:21.575Z,31.70
2022-12-05T02:58:36.293Z,32.80
2022-12-05T03:01:06.118Z,34.10
2022-12-05T03:03:36.068Z,33.90
2022-12-05T03:06:27.602Z,34.70
2022-12-05T03:09:12.541Z,36.10
2022-12-05T03:12:04.445Z,31.70
2022-12-05T03:15:04.922Z,30.70
2022-12-05T03:17:42.926Z,33.50
2022-12-05T03:20:46.106Z,33.50
2022-12-05T03:23:25.652Z,33.80
2022-12-05T03:25:58.290Z,34.60
2022-12-05T03:28:50.268Z,34.60
2022-12-05T03:31:34.557Z,37.00
2022-12-05T03:34:06.896Z,34.20
2022-12-05T03:36:42.173Z,33.70
2022-12-05T03:39:18.308Z,33.50
2022-12-05T03:42:21.285Z,36.00
2022-12-05T03:44:58.858Z,33.30
2022-12-05T03:47:37.700Z,37.90
2022-12-05T03:50:25.577Z,37.50
2022-12-05T03:53:24.976Z,37.00
2022-12-05T03:56:06.469Z,36.40
2022-12-05T03:59:19.017Z,38.20
2022-12-05T04:01:50.150Z,37.40
2022-12-05T04:04:29.091Z,38.60
2022-12-05T04:07:05.025Z,40.20
2022-12-05T04:09:52.175Z,37.90
2022-12-05T04:12:31.388Z,37.00
2022-12-05T04:15:08.959Z,38.10
2022-12-05T04:17:53.915Z,36.60
2022-12-05T04:20:57.814Z,38.90
2022-12-05T04:23:30.494Z,38.40
2022-12-05T04:26:21.784Z,39.50
2022-12-05T04:29:08.193Z,40.70
2022-12-05T04:31:44.134Z,39.40
2022-12-05T04:34:16.109Z,37.70
2022-12-05T04:36:57.794Z,40.70
2022-12-05T04:39:39.901Z,39.10
2022-12-05T04:42:15.305Z,42.00
2022-12-05T04:44:53.141Z,40.60
2022-12-05T04:47:30.238Z,39.60
2022-12-05T04:50:01.359Z,38.60
2022-12-05T04:52:32.735Z,40.10
2022-12-05T04:55:14.460Z,41.90
2022-12-05T04:58:14.767Z,40.60
2022-12-05T05:01:08.770Z,37.40
2022-12-05T05:03:51.626Z,38.50
2022-12-05T05:06:20.587Z,43.40
2022-12-05T05:08:56.532Z,41.40
2022-12-05T05:11:33.754Z,38.70
2022-12-05T05:14:04.135Z,37.60
2022-12-05T05:16:40.022Z,37.90
2022-12-05T05:19:11.362Z,39.80
2022-12-05T05:21:43.415Z,39.20
2022-12-05T05:26:46.437Z,36.00
2022-12-05T05:29:21.030Z,37.60
2022-12-05T05:31:50.287Z,39.90
2022-12-05T05:34:19.373Z,39.60
2022-12-05T05:36:53.175Z,39.80
2022-12-05T05:39:23.355Z,39.40
2022-12-05T05:41:53.023Z,40.80
2022-12-05T05:44:22.088Z,40.90
2022-12-05T05:46:51.379Z,39.50
2022-12-05T05:49:21.366Z,42.20
2022-12-05T05:51:50.804Z,42.00
2022-12-05T05:54:19.726Z,40.90
2022-12-05T05:56:49.326Z,39.90
2022-12-05T05:59:18.249Z,40.90
2022-12-05T06:01:51.440Z,40.40
2022-12-05T06:04:30.429Z,41.70
2022-12-05T06:06:59.511Z,39.20
2022-12-05T06:09:28.546Z,42.80
2022-12-05T06:12:00.634Z,48.40
2022-12-05T06:14:33.930Z,44.40
2022-12-05T06:17:03.116Z,44.80
2022-12-05T06:19:34.035Z,54.40
2022-12-05T06:22:02.976Z,51.20
2022-12-05T06:24:34.781Z,42.90
2022-12-05T06:27:06.449Z,42.50
2022-12-05T06:29:36.168Z,42.50
2022-12-05T06:32:05.989Z,42.50
2022-12-05T06:34:41.274Z,43.00
2022-12-05T06:37:10.526Z,46.70
2022-12-05T06:39:41.990Z,41.40
2022-12-05T06:42:11.312Z,45.30
2022-12-05T06:44:40.820Z,41.70
2022-12-05T06:47:09.747Z,42.10
2022-12-05T06:49:38.685Z,43.30
2022-12-05T06:52:11.668Z,40.80
2022-12-05T06:54:40.607Z,42.30
2022-12-05T06:57:13.086Z,41.20
2022-12-05T06:59:42.032Z,40.10
2022-12-05T07:02:13.627Z,41.50
2022-12-05T07:04:42.671Z,38.80
2022-12-05T07:07:16.061Z,38.60
2022-12-05T07:09:54.106Z,38.90
2022-12-05T07:12:30.254Z,42.00
2022-12-05T07:15:00.618Z,40.60
2022-12-05T07:17:29.679Z,45.00
2022-12-05T07:19:58.965Z,46.10
2022-12-05T07:22:28.342Z,42.50
2022-12-05T07:24:57.574Z,42.20
2022-12-05T07:27:28.392Z,40.20
2022-12-05T07:30:01.202Z,42.20
2022-12-05T07:32:34.697Z,40.20
2022-12-05T07:35:03.984Z,43.20
2022-12-05T07:37:34.349Z,41.80
2022-12-05T07:40:06.859Z,37.10
2022-12-05T07:42:36.175Z,38.90
2022-12-05T07:45:05.871Z,41.40
2022-12-05T07:47:46.557Z,41.50
2022-12-05T07:50:20.007Z,42.60
2022-12-05T07:52:54.045Z,40.20
2022-12-05T07:55:23.752Z,36.80
2022-12-05T07:57:58.763Z,38.10
2022-12-05T08:00:28.047Z,37.50
2022-12-05T08:03:02.805Z,43.10
2022-12-05T08:05:35.915Z,40.40
2022-12-05T08:08:07.922Z,40.60
2022-12-05T08:10:38.293Z,40.20
2022-12-05T08:13:08.729Z,40.30
2022-12-05T08:15:42.445Z,42.80
2022-12-05T08:18:13.079Z,41.60
2022-12-05T08:20:43.606Z,39.10
2022-12-05T08:23:12.783Z,41.40
2022-12-05T08:25:41.957Z,40.60
2022-12-05T08:28:18.772Z,41.70
2022-12-05T08:33:40.478Z,41.10
2022-12-05T08:36:15.475Z,42.00
2022-12-05T08:38:48.906Z,47.10
2022-12-05T08:41:18.197Z,44.20
2022-12-05T08:44:00.188Z,43.60
2022-12-05T08:47:12.962Z,43.70
2022-12-05T08:49:57.881Z,42.80
2022-12-05T08:52:34.475Z,40.10
2022-12-05T08:55:41.911Z,41.00
2022-12-05T08:59:59.159Z,41.90
2022-12-05T09:05:27.756Z,41.00
2022-12-05T09:08:13.500Z,40.20
2022-12-05T09:11:19.922Z,40.20
2022-12-05T09:14:08.423Z,41.70
2022-12-05T09:17:10.049Z,40.40
2022-12-05T09:20:16.254Z,41.20
2022-12-05T09:22:57.280Z,39.80
2022-12-05T09:25:32.079Z,40.40
2022-12-05T09:28:30.612Z,42.60
2022-12-05T09:31:13.762Z,42.90
2022-12-05T09:33:54.807Z,41.30
2022-12-05T09:36:47.477Z,42.70
2022-12-05T09:39:22.322Z,42.50
2022-12-05T09:42:35.395Z,38.20
2022-12-05T09:45:15.500Z,38.30
2022-12-05T09:48:05.672Z,42.00
2022-12-05T09:50:49.477Z,42.10
2022-12-05T09:53:31.003Z,41.70
2022-12-05T09:56:07.133Z,49.30
2022-12-05T09:58:50.679Z,43.20
2022-12-05T10:02:00.491Z,42.70
2022-12-05T10:04:35.556Z,42.10
2022-12-05T10:07:32.668Z,39.40
2022-12-05T10:10:31.940Z,41.90
2022-12-05T10:13:28.903Z,39.20
2022-12-05T10:16:10.719Z,43.20
2022-12-05T10:19:01.786Z,41.70
2022-12-05T10:22:01.098Z,40.40
2022-12-05T10:25:05.903Z,42.10
2022-12-05T10:27:49.050Z,41.50
2022-12-05T10:30:40.655Z,40.30
2022-12-05T10:33:33.384Z,44.70
2022-12-05T10:36:29.259Z,42.40
2022-12-05T10:39:33.750Z,44.90
2022-12-05T10:42:19.720Z,46.50
2022-12-05T10:45:26.670Z,43.20
2022-12-05T10:48:08.910Z,40.80
2022-12-05T10:50:50.443Z,42.90
2022-12-05T10:53:57.265Z,45.00
2022-12-05T10:56:48.480Z,43.90
2022-12-05T10:59:25.371Z,42.90
2022-12-05T11:01:59.434Z,49.80
2022-12-05T11:04:40.273Z,52.20
2022-12-05T11:07:24.212Z,47.40
2022-12-05T11:09:57.360Z,48.30
2022-12-05T11:12:39.985Z,47.80
2022-12-05T11:15:19.695Z,46.90
2022-12-05T11:17:51.687Z,54.80
2022-12-05T11:20:25.087Z,54.80
2022-12-05T11:23:29.987Z,47.50
2022-12-05T11:26:05.010Z,46.30
2022-12-05T11:28:42.036Z,49.20
2022-12-05T11:31:29.402Z,43.40
2022-12-05T11:34:30.872Z,42.70
2022-12-05T11:37:31.915Z,43.30
2022-12-05T11:40:29.416Z,45.40
2022-12-05T11:43:55.072Z,44.90
2022-12-05T11:46:34.538Z,49.50
2022-12-05T11:49:22.124Z,49.10
2022-12-05T11:52:51.445Z,49.90
2022-12-05T11:55:44.319Z,55.20
2022-12-05T11:58:37.565Z,47.90
2022-12-05T12:01:48.015Z,56.80
2022-12-05T12:08:16.279Z,58.40
2022-12-05T12:11:13.390Z,64.20
2022-12-05T12:14:12.136Z,52.60
2022-12-05T12:20:37.822Z,51.50
2022-12-05T12:23:50.151Z,49.80
2022-12-05T12:26:47.149Z,47.70
2022-12-05T12:29:37.584Z,48.70
2022-12-05T12:32:42.586Z,47.30
2022-12-05T12:35:44.266Z,50.10
2022-12-05T12:38:59.533Z,52.60
2022-12-05T12:45:03.278Z,64.70
2022-12-05T12:48:17.408Z,59.30
2022-12-05T12:51:05.636Z,58.80
2022-12-05T12:53:45.235Z,53.80
2022-12-05T12:56:45.183Z,58.80
2022-12-05T13:00:05.265Z,63.40
2022-12-05T13:03:03.032Z,50.80
2022-12-05T13:06:11.180Z,53.70
2022-12-05T13:08:57.726Z,49.80
2022-12-05T13:11:45.631Z,48.90
2022-12-05T13:15:08.022Z,46.60
2022-12-05T13:18:02.916Z,53.20
2022-12-05T13:20:43.091Z,48.70
2022-12-05T13:23:24.109Z,46.30
2022-12-05T13:26:00.033Z,53.90
2022-12-05T13:28:50.673Z,58.60
2022-12-05T13:31:40.501Z,51.50
2022-12-05T13:34:30.814Z,50.30
2022-12-05T13:37:29.370Z,48.20
2022-12-05T13:40:17.708Z,45.30
2022-12-05T13:42:48.255Z,45.10
2022-12-05T13:45:24.878Z,43.10
2022-12-05T13:48:01.369Z,45.00
2022-12-05T13:50:50.560Z,47.90
2022-12-05T13:53:37.734Z,50.90
2022-12-05T13:56:25.959Z,83.10
2022-12-05T13:59:04.417Z,80.10
2022-12-05T14:01:56.120Z,72.70
2022-12-05T14:05:02.477Z,78.30
2022-12-05T14:07:52.024Z,67.90
2022-12-05T14:10:48.987Z,60.60
2022-12-05T14:13:26.500Z,52.80
2022-12-05T14:16:44.454Z,64.50
2022-12-05T14:19:34.446Z,50.80
2022-12-05T14:22:49.254Z,66.30
2022-12-05T14:26:08.525Z,55.30
2022-12-05T14:29:02.081Z,49.60
2022-12-05T14:32:17.037Z,52.60
2022-12-05T14:35:11.866Z,67.90
2022-12-05T14:38:08.319Z,65.10
2022-12-05T14:40:43.970Z,55.70
2022-12-05T14:43:31.639Z,60.60
2022-12-05T14:50:59.426Z,63.50
2022-12-05T14:54:01.305Z,66.30
2022-12-05T14:57:16.021Z,67.00
2022-12-05T14:59:58.047Z,62.20
2022-12-05T15:02:49.676Z,58.60
2022-12-05T15:05:36.032Z,64.80
2022-12-05T15:08:18.149Z,70.50
2022-12-05T15:10:50.689Z,63.60
2022-12-05T15:13:27.685Z,64.30
2022-12-05T15:16:22.252Z,64.40
2022-12-05T15:19:05.242Z,70.40
2022-12-05T15:21:57.638Z,72.80
2022-12-05T15:24:41.123Z,86.70
2022-12-05T15:27:16.900Z,68.50
2022-12-05T15:29:54.930Z,92.40
2022-12-05T15:32:29.920Z,81.70
2022-12-05T15:35:14.019Z,77.30
2022-12-05T15:38:34.527Z,76.20
2022-12-05T15:41:23.120Z,71.30
2022-12-05T15:44:01.219Z,102.40
2022-12-05T15:46:44.740Z,71.10
2022-12-05T15:49:27.153Z,65.70
2022-12-05T15:52:22.283Z,76.10
2022-12-05T15:54:55.887Z,77.10
2022-12-05T15:57:54.719Z,72.50
2022-12-05T16:00:27.751Z,70.30
2022-12-05T16:03:28.651Z,71.10
2022-12-05T16:06:09.194Z,68.20
2022-12-05T16:08:46.336Z,71.50
2022-12-05T16:11:22.588Z,70.70
2022-12-05T16:14:05.928Z,77.20
2022-12-05T16:16:42.178Z,73.60
2022-12-05T16:19:19.361Z,73.60
2022-12-05T16:22:09.399Z,78.50
2022-12-05T16:24:55.569Z,71.60
2022-12-05T16:27:36.769Z,70.20
2022-12-05T16:33:38.972Z,67.30
2022-12-05T16:36:39.340Z,66.00
2022-12-05T16:39:34.048Z,65.50
2022-12-05T16:42:43.422Z,68.60
2022-12-05T16:45:56.278Z,88.30
2022-12-05T16:48:36.447Z,72.30
2022-12-05T16:51:32.834Z,73.80
2022-12-05T16:54:08.052Z,69.90
2022-12-05T16:56:52.931Z,73.60
2022-12-05T16:59:49.190Z,73.40
2022-12-05T17:02:37.983Z,71.20
2022-12-05T17:05:23.329Z,74.20
2022-12-05T17:08:11.109Z,74.90
2022-12-05T17:11:21.260Z,81.00
2022-12-05T17:17:00.260Z,69.90
2022-12-05T17:19:39.047Z,66.90
2022-12-05T17:22:14.442Z,64.60
2022-12-05T17:25:01.191Z,59.30
2022-12-05T17:27:37.557Z,59.20
2022-12-05T17:33:51.974Z,62.70
2022-12-05T17:37:17.216Z,63.20
2022-12-05T17:40:21.799Z,83.30
2022-12-05T17:43:47.172Z,75.50
2022-12-05T17:46:05.466Z,65.90
2022-12-05T17:53:49.363Z,64.60
2022-12-05T17:56:18.306Z,60.30
2022-12-05T17:58:47.774Z,61.90
2022-12-05T18:01:20.572Z,64.00
2022-12-05T18:03:50.159Z,60.20
2022-12-05T18:06:19.197Z,66.20
2022-12-05T18:08:49.899Z,67.60
2022-12-05T18:11:19.426Z,63.80
2022-12-05T18:13:49.483Z,69.70
2022-12-05T18:16:18.996Z,72.60
2022-12-05T18:18:48.420Z,88.10
2022-12-05T18:21:17.849Z,79.90
2022-12-05T18:23:47.222Z,76.60
2022-12-05T18:26:19.255Z,73.20
2022-12-05T18:28:48.273Z,68.40
2022-12-05T18:31:17.573Z,73.10
2022-12-05T18:33:47.601Z,75.80
2022-12-05T18:36:21.020Z,86.90
2022-12-05T18:38:55.129Z,84.60
2022-12-05T18:41:27.066Z,71.90
2022-12-05T18:43:56.250Z,81.90
2022-12-05T18:46:25.658Z,78.60
2022-12-05T18:48:58.914Z,85.40
2022-12-05T18:51:31.420Z,95.90
2022-12-05T18:54:00.466Z,87.40
2022-12-05T18:56:36.991Z,73.50
2022-12-05T18:59:15.657Z,70.80
2022-12-05T19:01:46.194Z,72.00
2022-12-05T19:04:19.053Z,73.00
2022-12-05T19:07:02.110Z,84.60
2022-12-05T19:09:32.961Z,76.40
2022-12-05T19:12:03.269Z,77.90
2022-12-05T19:14:33.386Z,79.40
2022-12-05T19:17:04.345Z,76.90
2022-12-05T19:19:33.407Z,83.00
2022-12-05T19:22:02.304Z,89.10
2022-12-05T19:24:31.433Z,84.80
2022-12-05T19:27:00.323Z,88.20
2022-12-05T19:29:29.319Z,86.00
2022-12-05T19:31:58.494Z,86.70
2022-12-05T19:34:27.591Z,74.00
2022-12-05T19:36:56.701Z,83.90
2022-12-05T19:39:27.041Z,80.80
2022-12-05T19:42:00.404Z,83.60
2022-12-05T19:44:29.772Z,82.90
2022-12-05T19:46:58.751Z,90.80
2022-12-05T19:49:27.814Z,96.00
2022-12-05T19:51:58.559Z,85.60
2022-12-05T19:54:27.661Z,98.70
2022-12-05T19:57:00.584Z,89.00
2022-12-05T19:59:29.550Z,90.80
2022-12-05T20:01:58.741Z,81.30
2022-12-05T20:04:28.004Z,80.00
2022-12-05T20:06:57.250Z,87.10
2022-12-05T20:09:27.410Z,88.30
2022-12-05T20:11:56.647Z,92.50
2022-12-05T20:14:28.528Z,87.60
2022-12-05T20:16:59.151Z,76.90
2022-12-05T20:19:33.299Z,77.90
2022-12-05T20:22:02.432Z,82.80
2022-12-05T20:24:31.486Z,80.30
2022-12-05T20:27:01.800Z,86.10
2022-12-05T20:29:31.046Z,81.60
2022-12-05T20:31:59.986Z,87.40
2022-12-05T20:34:29.200Z,87.50
2022-12-05T20:36:58.294Z,86.10
2022-12-05T20:39:29.663Z,102.30
2022-12-05T20:42:01.153Z,96.10
2022-12-05T20:44:30.562Z,88.20
2022-12-05T20:46:59.576Z,86.20
2022-12-05T20:49:28.551Z,101.80
2022-12-05T20:51:57.500Z,114.20
2022-12-05T20:54:26.658Z,97.40
2022-12-05T20:56:56.624Z,89.60
2022-12-05T20:59:25.487Z,81.40
2022-12-05T21:01:54.631Z,78.60
2022-12-05T21:04:23.868Z,71.70
2022-12-05T21:06:52.725Z,69.20
2022-12-05T21:09:29.948Z,69.70
2022-12-05T21:11:59.915Z,67.80
2022-12-05T21:14:30.051Z,67.70
2022-12-05T21:16:58.905Z,70.40
2022-12-05T21:19:28.242Z,73.90
2022-12-05T21:21:57.197Z,67.30
2022-12-05T21:24:26.356Z,72.40
2022-12-05T21:26:55.520Z,71.70
2022-12-05T21:29:24.365Z,71.10
2022-12-05T21:31:53.289Z,71.10
2022-12-05T21:34:22.196Z,77.10
2022-12-05T21:36:51.294Z,72.10
2022-12-05T21:39:20.988Z,77.30
2022-12-05T21:41:49.797Z,77.40
2022-12-05T21:44:20.132Z,71.40
2022-12-05T21:46:49.371Z,74.80
2022-12-05T21:49:18.417Z,76.20
2022-12-05T21:51:47.797Z,80.20
2022-12-05T21:54:16.575Z,80.00
2022-12-05T21:56:45.488Z,83.70
2022-12-05T21:59:14.403Z,82.70
2022-12-05T22:01:43.394Z,81.20
2022-12-05T22:04:12.407Z,86.40
2022-12-05T22:06:41.165Z,84.30
2022-12-05T22:09:10.620Z,87.50
2022-12-05T22:11:39.602Z,85.00
2022-12-05T22:14:09.141Z,83.70
2022-12-05T22:16:38.062Z,89.10
2022-12-05T22:19:06.928Z,81.70
2022-12-05T22:21:35.820Z,84.60
2022-12-05T22:24:04.895Z,83.10
2022-12-05T22:26:33.758Z,86.30
2022-12-05T22:29:02.695Z,81.70
2022-12-05T22:31:32.330Z,79.70
2022-12-05T22:34:01.338Z,76.00
2022-12-05T22:36:30.556Z,71.50
2022-12-05T22:38:59.494Z,81.70
2022-12-05T22:41:28.498Z,79.50
2022-12-05T22:44:00.145Z,75.40
2022-12-05T22:46:29.499Z,75.80
2022-12-05T22:48:58.704Z,74.50
2022-12-05T22:51:28.039Z,82.60
2022-12-05T22:53:57.437Z,81.60
2022-12-05T22:56:29.090Z,77.80
2022-12-05T22:59:01.167Z,73.90
2022-12-05T23:01:35.056Z,71.10
2022-12-05T23:04:09.913Z,66.80
2022-12-05T23:06:56.740Z,68.50
2022-12-05T23:09:25.801Z,69.10
2022-12-05T23:11:54.826Z,69.70
2022-12-05T23:14:23.662Z,63.70
2022-12-05T23:16:52.384Z,69.00
2022-12-05T23:19:24.432Z,62.70
2022-12-05T23:21:58.348Z,66.00
2022-12-05T23:24:29.147Z,64.70
2022-12-05T23:26:57.977Z,66.50
2022-12-05T23:29:26.769Z,65.70
2022-12-05T23:31:55.511Z,65.80
2022-12-05T23:34:25.223Z,65.20
2022-12-05T23:36:54.128Z,70.50
2022-12-05T23:39:22.809Z,70.90
2022-12-05T23:41:51.997Z,70.40
2022-12-05T23:44:21.657Z,66.30
2022-12-05T23:46:50.299Z,69.60
2022-12-05T23:49:18.955Z,67.60
2022-12-05T23:51:49.556Z,67.40
2022-12-05T23:54:18.181Z,67.50
2022-12-05T23:56:46.978Z,70.80
2022-12-05T23:59:15.875Z,67.80
